Flight Track Log - Related Links

Times and Time Zones

All times are in EDT time to prevent confusion due to time zone crossing. See the DAL1937 flight status page for this flight to view local times or setup timezone preferences in your user account.

Time Position Orientation Groundspeed Altitude Reporting Facility
EDT Latitude Longitude Course Direction KTS MPH feet Rate Location/Type
Wed 06:15:06 AM 39.1833 -76.7167 290° West 167 192 1,800  Level Potomac TRACON
Wed 06:15:54 AM 39.1833 -76.8000 270° West 246 283 2,900 2,500 Climbing Potomac TRACON
Wed 06:16:54 AM 39.2000 -76.8833 284° West 266 306 6,300 3,250 Climbing Potomac TRACON
Wed 06:17:00 AM 39.2000 -77.0757 270° West  Level FlightAware Approximate
Wed 06:17:54 AM 39.2167 -76.9833 282° West 276 318 9,400  Level Potomac TRACON
Wed 06:18:00 AM 39.2451 -77.1784 322° Northwest  Level FlightAware Approximate
Wed 06:18:54 AM 39.2167 -77.0833 270° West 308 354 11,400  Level Potomac TRACON
Wed 06:19:00 AM 39.3306 -77.2639 322° Northwest  Level FlightAware Approximate
Wed 06:20:00 AM 39.3863 -77.3769 290° West  Level FlightAware Approximate
Wed 06:20:44 AM 39.3061 -77.2572 304° West 363 418 15,100  Level Washington Center
Wed 06:21:44 AM 39.3608 -77.3739 301° West 374 430 17,300 2,085 Climbing Washington Center
Wed 06:22:42 AM 39.4153 -77.4989 299° West 385 443 19,200 2,067 Climbing Washington Center
Wed 06:23:43 AM 39.4672 -77.6292 297° West 402 463 21,400 1,769 Climbing Washington Center
Wed 06:25:35 AM 39.5564 -77.9147 292° West 417 480 24,300 1,500 Climbing Cleveland Center
Wed 06:26:35 AM 39.6014 -78.0639 291° West 435 501 25,700 4,810 Climbing Cleveland Center
Wed 06:27:36 AM 39.6464 -78.2133 291° West 446 513 34,000 1,140 Climbing Cleveland Center
Wed 06:28:36 AM 39.6911 -78.3681 291° West 446 513 28,000 -2,300 Descending Cleveland Center
Wed 06:29:36 AM 39.7358 -78.5233 291° West 456 525 29,400 1,150 Climbing Cleveland Center
Wed 06:30:36 AM 39.7733 -78.6464 292° West 456 525 30,300 1,300 Climbing Cleveland Center
Wed 06:31:36 AM 39.8178 -78.8128 289° West 461 531 32,000 1,563 Climbing Cleveland Center
Wed 06:32:35 AM 39.8619 -78.9683 290° West 461 531 33,400 1,000 Climbing Cleveland Center
Wed 06:33:36 AM 39.9078 -79.1189 292° West 461 531 34,000 298 Climbing Cleveland Center
Wed 06:34:36 AM 39.9492 -79.2617 291° West 449 517 34,000  Level Cleveland Center
Wed 06:35:35 AM 39.9986 -79.4069 294° West 444 511 34,000 -100 Level Cleveland Center
Wed 06:36:36 AM 40.0667 -79.5386 304° West 439 505 33,800 -545 Descending Cleveland Center
Wed 06:37:36 AM 40.1344 -79.6706 304° West 439 505 32,900 -950 Descending Cleveland Center
Wed 06:38:36 AM 40.2042 -79.8056 304° West 444 511 31,900 -1,000 Descending Cleveland Center
Wed 06:39:36 AM 40.2739 -79.9408 304° West 444 511 30,900 -950 Descending Cleveland Center
Wed 06:40:36 AM 40.3456 -80.0928 302° West 444 511 30,000 -450 Descending Cleveland Center
Wed 06:41:36 AM 40.4147 -80.2286 304° West 451 519 30,000  Level Cleveland Center
Wed 06:42:36 AM 40.4858 -80.3619 305° West 451 519 30,000  Level Cleveland Center
Wed 06:43:36 AM 40.5528 -80.4956 303° West 451 519 30,000  Level Cleveland Center
Wed 06:44:36 AM 40.6194 -80.6322 303° West 451 519 30,000  Level Cleveland Center
Wed 06:45:36 AM 40.6883 -80.7692 304° West 450 518 30,000  Level Cleveland Center
Wed 06:46:36 AM 40.7589 -80.9039 305° West 450 518 30,000 -200 Level Cleveland Center
Wed 06:47:36 AM 40.8292 -81.0386 305° West 455 524 29,600 -700 Descending Cleveland Center
Wed 06:48:36 AM 40.9017 -81.1736 305° West 455 524 28,600 -800 Descending Cleveland Center
Wed 06:49:36 AM 40.9694 -81.3092 304° West 449 517 28,000 -300 Descending Cleveland Center
Wed 06:50:36 AM 41.0314 -81.4281 305° West 444 511 28,000  Level Cleveland Center
Wed 06:51:36 AM 41.1011 -81.5642 304° West 444 511 28,000  Level Cleveland Center
Wed 06:52:36 AM 41.1831 -81.7086 307° West 449 517 28,000 -400 Level Cleveland Center
Wed 06:53:36 AM 41.2506 -81.8369 305° West 444 511 27,200 -900 Descending Cleveland Center
Wed 06:54:36 AM 41.3178 -81.9683 304° West 439 505 26,200 -1,000 Descending Cleveland Center
Wed 06:55:36 AM 41.3828 -82.0997 303° West 433 498 25,200 -1,400 Descending Cleveland Center
Wed 06:56:36 AM 41.4497 -82.2369 303° West 433 498 23,400 -2,500 Descending Cleveland Center
Wed 06:57:36 AM 41.5228 -82.3775 305° West 454 522 20,200 -3,400 Descending Cleveland Center
Wed 06:58:36 AM 41.5914 -82.5128 304° West 452 520 16,600 -3,150 Descending Cleveland Center
Wed 06:59:36 AM 41.6497 -82.6283 304° West 443 510 13,900 -2,150 Descending Cleveland Center
Wed 07:00:36 AM 41.7100 -82.7556 302° West 423 487 12,300 -1,000 Descending Cleveland Center
Wed 07:01:36 AM 41.7914 -82.8642 315° West 416 479 11,900 -200 Descending Cleveland Center
Wed 07:02:36 AM 41.8639 -82.9811 310° West 409 471 11,900 50 Level Cleveland Center
Wed 07:03:36 AM 41.9133 -83.1083 298° West 402 463 12,000  Climbing Cleveland Center
Wed 07:04:36 AM 41.9608 -83.2192 300° West 372 428 11,900 -50 Descending Cleveland Center
Wed 07:05:36 AM 42.0189 -83.3222 307° West 349 402 11,900 -100 Level Cleveland Center
Wed 07:06:36 AM 42.0917 -83.4233 314° West 349 402 11,700 -409 Descending Cleveland Center
Wed 07:07:48 AM 42.1900 -83.4894 334° Northwest 294 338 11,000 -541 Descending Cleveland Center
Wed 07:08:49 AM 42.2669 -83.4931 358° North 266 306 10,500 -836 Descending Cleveland Center
Wed 07:09:50 AM 42.3344 -83.4622 19° North 267 307 9,300 -1,041 Descending Cleveland Center
Wed 07:10:50 AM 42.3981 -83.4203 26° Northeast 246 283 8,400 -1,041 Descending Cleveland Center
Wed 07:11:51 AM 42.4578 -83.3694 32° Northeast 231 266 7,200 -1,266 Descending Cleveland Center
Wed 07:12:58 AM 42.4325 -83.2894 113° Southeast 194 223 5,700 -1,406 Descending Cleveland Center
Wed 07:13:59 AM 42.3825 -83.2903 181° South 182 209 4,200 -1,377 Descending Cleveland Center
Wed 07:15:00 AM 42.3322 -83.2992 187° South 184 212 2,900 -1,279 Descending Cleveland Center

Login

Don't have an account? Register now (free) for customized features, flight alerts, and more!